sensor_id;sensor_type;location;lat;lon;timestamp;P1;durP1;ratioP1;P2;durP2;ratioP2
84315;SDS011;74496;52.236;5.164;2023-12-07T00:00:38;13.13;;;9.25;;
84315;SDS011;74496;52.236;5.164;2023-12-07T00:03:06;13.77;;;9.70;;
84315;SDS011;74496;52.236;5.164;2023-12-07T00:05:33;14.40;;;9.40;;
84315;SDS011;74496;52.236;5.164;2023-12-07T00:07:59;17.15;;;9.88;;
84315;SDS011;74496;52.236;5.164;2023-12-07T00:10:26;12.47;;;8.63;;
84315;SDS011;74496;52.236;5.164;2023-12-07T00:12:52;14.77;;;8.82;;
84315;SDS011;74496;52.236;5.164;2023-12-07T00:15:19;11.38;;;8.70;;
84315;SDS011;74496;52.236;5.164;2023-12-07T00:17:46;14.35;;;8.70;;
84315;SDS011;74496;52.236;5.164;2023-12-07T00:20:14;22.77;;;9.10;;
84315;SDS011;74496;52.236;5.164;2023-12-07T00:22:41;12.20;;;8.80;;
84315;SDS011;74496;52.236;5.164;2023-12-07T00:25:08;12.20;;;8.02;;
84315;SDS011;74496;52.236;5.164;2023-12-07T00:27:34;11.73;;;8.30;;
84315;SDS011;74496;52.236;5.164;2023-12-07T00:30:01;10.80;;;7.82;;
84315;SDS011;74496;52.236;5.164;2023-12-07T00:32:28;13.73;;;8.85;;
84315;SDS011;74496;52.236;5.164;2023-12-07T00:34:55;10.03;;;8.17;;
84315;SDS011;74496;52.236;5.164;2023-12-07T00:37:23;13.63;;;8.10;;
84315;SDS011;74496;52.236;5.164;2023-12-07T00:39:49;10.27;;;8.20;;
84315;SDS011;74496;52.236;5.164;2023-12-07T00:42:16;11.45;;;7.65;;
84315;SDS011;74496;52.236;5.164;2023-12-07T00:44:43;11.93;;;8.00;;
84315;SDS011;74496;52.236;5.164;2023-12-07T00:47:09;10.90;;;7.27;;
84315;SDS011;74496;52.236;5.164;2023-12-07T00:49:37;12.05;;;8.20;;
84315;SDS011;74496;52.236;5.164;2023-12-07T00:52:04;9.73;;;7.55;;
84315;SDS011;74496;52.236;5.164;2023-12-07T00:54:32;11.48;;;7.90;;
84315;SDS011;74496;52.236;5.164;2023-12-07T00:56:59;9.70;;;7.55;;
84315;SDS011;74496;52.236;5.164;2023-12-07T00:59:25;11.23;;;7.87;;
84315;SDS011;74496;52.236;5.164;2023-12-07T01:01:52;8.65;;;7.00;;
84315;SDS011;74496;52.236;5.164;2023-12-07T01:04:19;13.25;;;7.90;;
84315;SDS011;74496;52.236;5.164;2023-12-07T01:06:45;8.73;;;7.00;;
84315;SDS011;74496;52.236;5.164;2023-12-07T01:09:12;11.00;;;7.25;;
84315;SDS011;74496;52.236;5.164;2023-12-07T01:11:40;12.47;;;6.87;;
84315;SDS011;74496;52.236;5.164;2023-12-07T01:14:07;15.38;;;7.90;;
84315;SDS011;74496;52.236;5.164;2023-12-07T01:16:33;14.63;;;7.55;;
84315;SDS011;74496;52.236;5.164;2023-12-07T01:19:00;10.77;;;7.80;;
84315;SDS011;74496;52.236;5.164;2023-12-07T01:21:27;14.95;;;6.70;;
84315;SDS011;74496;52.236;5.164;2023-12-07T01:23:53;11.83;;;7.63;;
84315;SDS011;74496;52.236;5.164;2023-12-07T01:26:20;10.82;;;7.70;;
84315;SDS011;74496;52.236;5.164;2023-12-07T01:28:48;12.30;;;7.32;;
84315;SDS011;74496;52.236;5.164;2023-12-07T01:31:15;14.00;;;7.47;;
84315;SDS011;74496;52.236;5.164;2023-12-07T01:33:42;8.38;;;7.07;;
84315;SDS011;74496;52.236;5.164;2023-12-07T01:36:10;10.93;;;7.30;;
84315;SDS011;74496;52.236;5.164;2023-12-07T01:38:36;11.65;;;6.97;;
84315;SDS011;74496;52.236;5.164;2023-12-07T01:41:03;10.30;;;7.13;;
84315;SDS011;74496;52.236;5.164;2023-12-07T01:43:30;11.02;;;7.40;;
84315;SDS011;74496;52.236;5.164;2023-12-07T01:45:58;11.52;;;7.20;;
84315;SDS011;74496;52.236;5.164;2023-12-07T01:48:26;8.93;;;6.70;;
84315;SDS011;74496;52.236;5.164;2023-12-07T01:50:54;11.48;;;7.30;;
84315;SDS011;74496;52.236;5.164;2023-12-07T01:53:22;13.95;;;6.97;;
84315;SDS011;74496;52.236;5.164;2023-12-07T01:55:49;10.98;;;7.35;;
84315;SDS011;74496;52.236;5.164;2023-12-07T01:58:17;10.98;;;6.90;;
84315;SDS011;74496;52.236;5.164;2023-12-07T02:00:45;8.60;;;7.10;;
84315;SDS011;74496;52.236;5.164;2023-12-07T02:03:14;10.32;;;6.93;;
84315;SDS011;74496;52.236;5.164;2023-12-07T02:05:43;7.68;;;6.68;;
84315;SDS011;74496;52.236;5.164;2023-12-07T02:08:13;10.35;;;6.35;;
84315;SDS011;74496;52.236;5.164;2023-12-07T02:10:42;10.85;;;6.63;;
84315;SDS011;74496;52.236;5.164;2023-12-07T02:13:09;8.93;;;6.77;;
84315;SDS011;74496;52.236;5.164;2023-12-07T02:15:36;8.32;;;6.40;;
84315;SDS011;74496;52.236;5.164;2023-12-07T02:18:03;10.93;;;6.80;;
84315;SDS011;74496;52.236;5.164;2023-12-07T02:20:39;11.27;;;6.40;;
84315;SDS011;74496;52.236;5.164;2023-12-07T02:23:13;9.02;;;6.60;;
84315;SDS011;74496;52.236;5.164;2023-12-07T02:25:44;14.20;;;7.17;;
84315;SDS011;74496;52.236;5.164;2023-12-07T02:28:17;15.20;;;6.90;;
84315;SDS011;74496;52.236;5.164;2023-12-07T02:30:43;8.07;;;6.30;;
84315;SDS011;74496;52.236;5.164;2023-12-07T02:33:10;8.25;;;6.57;;
84315;SDS011;74496;52.236;5.164;2023-12-07T02:35:38;9.10;;;6.72;;
84315;SDS011;74496;52.236;5.164;2023-12-07T02:38:05;10.67;;;7.20;;
84315;SDS011;74496;52.236;5.164;2023-12-07T02:40:33;14.15;;;6.93;;
84315;SDS011;74496;52.236;5.164;2023-12-07T02:43:01;7.85;;;6.28;;
84315;SDS011;74496;52.236;5.164;2023-12-07T02:45:31;10.25;;;7.65;;
84315;SDS011;74496;52.236;5.164;2023-12-07T02:47:59;12.93;;;7.63;;
84315;SDS011;74496;52.236;5.164;2023-12-07T02:50:26;10.17;;;7.10;;
84315;SDS011;74496;52.236;5.164;2023-12-07T02:52:52;11.40;;;6.93;;
84315;SDS011;74496;52.236;5.164;2023-12-07T02:55:21;9.45;;;6.93;;
84315;SDS011;74496;52.236;5.164;2023-12-07T02:57:47;9.70;;;6.65;;
84315;SDS011;74496;52.236;5.164;2023-12-07T03:00:14;8.10;;;6.88;;
84315;SDS011;74496;52.236;5.164;2023-12-07T03:02:43;7.83;;;6.13;;
84315;SDS011;74496;52.236;5.164;2023-12-07T03:05:10;8.25;;;6.18;;
84315;SDS011;74496;52.236;5.164;2023-12-07T03:07:36;8.15;;;5.93;;
84315;SDS011;74496;52.236;5.164;2023-12-07T03:10:03;12.32;;;6.57;;
84315;SDS011;74496;52.236;5.164;2023-12-07T03:12:31;9.23;;;6.40;;
84315;SDS011;74496;52.236;5.164;2023-12-07T03:14:57;10.30;;;6.00;;
84315;SDS011;74496;52.236;5.164;2023-12-07T03:17:24;9.95;;;6.30;;
84315;SDS011;74496;52.236;5.164;2023-12-07T03:19:52;8.90;;;6.10;;
84315;SDS011;74496;52.236;5.164;2023-12-07T03:22:19;7.50;;;5.95;;
84315;SDS011;74496;52.236;5.164;2023-12-07T03:24:46;9.32;;;6.68;;
84315;SDS011;74496;52.236;5.164;2023-12-07T03:27:15;9.33;;;6.17;;
84315;SDS011;74496;52.236;5.164;2023-12-07T03:29:42;10.35;;;6.28;;
84315;SDS011;74496;52.236;5.164;2023-12-07T03:32:09;7.95;;;7.00;;
84315;SDS011;74496;52.236;5.164;2023-12-07T03:34:35;9.60;;;6.38;;
84315;SDS011;74496;52.236;5.164;2023-12-07T03:37:04;7.53;;;5.75;;
84315;SDS011;74496;52.236;5.164;2023-12-07T03:39:32;7.40;;;5.83;;
84315;SDS011;74496;52.236;5.164;2023-12-07T03:41:59;7.18;;;6.22;;
84315;SDS011;74496;52.236;5.164;2023-12-07T03:44:26;5.93;;;5.43;;
84315;SDS011;74496;52.236;5.164;2023-12-07T03:46:53;8.45;;;6.20;;
84315;SDS011;74496;52.236;5.164;2023-12-07T03:49:19;8.18;;;5.40;;
84315;SDS011;74496;52.236;5.164;2023-12-07T03:51:46;8.97;;;6.10;;
84315;SDS011;74496;52.236;5.164;2023-12-07T03:54:14;9.10;;;6.03;;
84315;SDS011;74496;52.236;5.164;2023-12-07T03:56:41;9.57;;;6.63;;
84315;SDS011;74496;52.236;5.164;2023-12-07T03:59:07;7.28;;;6.20;;
84315;SDS011;74496;52.236;5.164;2023-12-07T04:01:34;9.73;;;6.18;;
84315;SDS011;74496;52.236;5.164;2023-12-07T04:04:01;8.37;;;6.50;;
84315;SDS011;74496;52.236;5.164;2023-12-07T04:06:27;9.60;;;6.07;;
84315;SDS011;74496;52.236;5.164;2023-12-07T04:08:54;11.32;;;6.72;;
84315;SDS011;74496;52.236;5.164;2023-12-07T04:11:22;8.80;;;6.28;;
84315;SDS011;74496;52.236;5.164;2023-12-07T04:13:49;8.07;;;6.20;;
84315;SDS011;74496;52.236;5.164;2023-12-07T04:16:16;8.40;;;6.47;;
84315;SDS011;74496;52.236;5.164;2023-12-07T04:18:43;8.23;;;7.00;;
84315;SDS011;74496;52.236;5.164;2023-12-07T04:21:09;13.43;;;6.72;;
84315;SDS011;74496;52.236;5.164;2023-12-07T04:23:36;10.70;;;7.20;;
84315;SDS011;74496;52.236;5.164;2023-12-07T04:26:03;7.50;;;6.68;;
84315;SDS011;74496;52.236;5.164;2023-12-07T04:28:32;11.33;;;7.03;;
84315;SDS011;74496;52.236;5.164;2023-12-07T04:30:58;10.13;;;6.53;;
84315;SDS011;74496;52.236;5.164;2023-12-07T04:33:25;9.55;;;6.63;;
84315;SDS011;74496;52.236;5.164;2023-12-07T04:35:52;7.78;;;6.85;;
84315;SDS011;74496;52.236;5.164;2023-12-07T04:38:18;8.18;;;6.47;;
84315;SDS011;74496;52.236;5.164;2023-12-07T04:40:45;9.70;;;6.60;;
84315;SDS011;74496;52.236;5.164;2023-12-07T04:43:12;10.60;;;6.70;;
84315;SDS011;74496;52.236;5.164;2023-12-07T04:45:40;9.63;;;7.88;;
84315;SDS011;74496;52.236;5.164;2023-12-07T04:48:07;14.05;;;7.35;;
84315;SDS011;74496;52.236;5.164;2023-12-07T04:50:33;10.57;;;7.57;;
84315;SDS011;74496;52.236;5.164;2023-12-07T04:53:00;9.80;;;6.90;;
84315;SDS011;74496;52.236;5.164;2023-12-07T04:55:26;11.63;;;8.18;;
84315;SDS011;74496;52.236;5.164;2023-12-07T04:57:53;12.20;;;7.68;;
84315;SDS011;74496;52.236;5.164;2023-12-07T05:00:20;11.65;;;8.32;;
84315;SDS011;74496;52.236;5.164;2023-12-07T05:02:49;10.75;;;7.90;;
84315;SDS011;74496;52.236;5.164;2023-12-07T05:05:15;9.10;;;7.70;;
84315;SDS011;74496;52.236;5.164;2023-12-07T05:07:42;9.00;;;7.30;;
84315;SDS011;74496;52.236;5.164;2023-12-07T05:10:09;11.23;;;7.50;;
84315;SDS011;74496;52.236;5.164;2023-12-07T05:12:36;12.00;;;7.65;;
84315;SDS011;74496;52.236;5.164;2023-12-07T05:15:03;8.68;;;7.25;;
84315;SDS011;74496;52.236;5.164;2023-12-07T05:17:31;9.67;;;7.17;;
84315;SDS011;74496;52.236;5.164;2023-12-07T05:19:59;10.00;;;8.20;;
84315;SDS011;74496;52.236;5.164;2023-12-07T05:22:27;10.27;;;7.97;;
84315;SDS011;74496;52.236;5.164;2023-12-07T05:24:54;7.43;;;6.72;;
84315;SDS011;74496;52.236;5.164;2023-12-07T05:27:20;13.38;;;8.35;;
84315;SDS011;74496;52.236;5.164;2023-12-07T05:29:47;16.07;;;8.17;;
84315;SDS011;74496;52.236;5.164;2023-12-07T05:32:14;9.77;;;7.50;;
84315;SDS011;74496;52.236;5.164;2023-12-07T05:34:40;10.88;;;7.93;;
84315;SDS011;74496;52.236;5.164;2023-12-07T05:37:08;10.70;;;7.70;;
84315;SDS011;74496;52.236;5.164;2023-12-07T05:39:35;10.20;;;7.88;;
84315;SDS011;74496;52.236;5.164;2023-12-07T05:42:02;8.43;;;7.50;;
84315;SDS011;74496;52.236;5.164;2023-12-07T05:44:29;9.20;;;7.47;;
84315;SDS011;74496;52.236;5.164;2023-12-07T05:46:56;10.00;;;7.80;;
84315;SDS011;74496;52.236;5.164;2023-12-07T05:49:23;9.45;;;7.55;;
84315;SDS011;74496;52.236;5.164;2023-12-07T05:51:50;10.50;;;7.72;;
84315;SDS011;74496;52.236;5.164;2023-12-07T05:54:19;11.83;;;7.87;;
84315;SDS011;74496;52.236;5.164;2023-12-07T05:56:47;12.20;;;7.88;;
84315;SDS011;74496;52.236;5.164;2023-12-07T05:59:14;12.73;;;8.27;;
84315;SDS011;74496;52.236;5.164;2023-12-07T06:01:40;13.77;;;8.50;;
84315;SDS011;74496;52.236;5.164;2023-12-07T06:04:08;33.97;;;10.45;;
84315;SDS011;74496;52.236;5.164;2023-12-07T06:06:35;41.07;;;10.03;;
84315;SDS011;74496;52.236;5.164;2023-12-07T06:09:02;84.75;;;10.82;;
84315;SDS011;74496;52.236;5.164;2023-12-07T06:11:31;28.65;;;9.18;;
84315;SDS011;74496;52.236;5.164;2023-12-07T06:13:58;90.22;;;10.05;;
84315;SDS011;74496;52.236;5.164;2023-12-07T06:16:25;82.88;;;8.77;;
84315;SDS011;74496;52.236;5.164;2023-12-07T06:18:52;147.23;;;9.97;;
84315;SDS011;74496;52.236;5.164;2023-12-07T06:21:18;39.60;;;8.02;;
84315;SDS011;74496;52.236;5.164;2023-12-07T06:23:45;60.42;;;8.93;;
84315;SDS011;74496;52.236;5.164;2023-12-07T06:26:12;66.65;;;8.90;;
84315;SDS011;74496;52.236;5.164;2023-12-07T06:28:40;41.05;;;9.23;;
84315;SDS011;74496;52.236;5.164;2023-12-07T06:31:07;30.70;;;8.00;;
84315;SDS011;74496;52.236;5.164;2023-12-07T06:33:34;75.78;;;8.38;;
84315;SDS011;74496;52.236;5.164;2023-12-07T06:36:01;61.13;;;9.02;;
84315;SDS011;74496;52.236;5.164;2023-12-07T06:38:29;31.75;;;8.60;;
84315;SDS011;74496;52.236;5.164;2023-12-07T06:40:56;73.70;;;8.93;;
84315;SDS011;74496;52.236;5.164;2023-12-07T06:43:23;62.17;;;9.47;;
84315;SDS011;74496;52.236;5.164;2023-12-07T06:45:51;49.70;;;9.30;;
84315;SDS011;74496;52.236;5.164;2023-12-07T06:48:18;39.88;;;9.43;;
84315;SDS011;74496;52.236;5.164;2023-12-07T06:50:45;32.35;;;9.60;;
84315;SDS011;74496;52.236;5.164;2023-12-07T06:53:11;34.58;;;9.55;;
84315;SDS011;74496;52.236;5.164;2023-12-07T06:55:38;22.10;;;9.50;;
84315;SDS011;74496;52.236;5.164;2023-12-07T06:58:06;63.78;;;9.70;;
84315;SDS011;74496;52.236;5.164;2023-12-07T07:00:34;81.47;;;10.55;;
84315;SDS011;74496;52.236;5.164;2023-12-07T07:03:02;24.05;;;9.93;;
84315;SDS011;74496;52.236;5.164;2023-12-07T07:05:29;41.38;;;10.35;;
84315;SDS011;74496;52.236;5.164;2023-12-07T07:07:56;39.80;;;10.07;;
84315;SDS011;74496;52.236;5.164;2023-12-07T07:10:23;55.08;;;10.40;;
84315;SDS011;74496;52.236;5.164;2023-12-07T07:12:50;47.63;;;11.07;;
84315;SDS011;74496;52.236;5.164;2023-12-07T07:15:16;20.00;;;10.48;;
84315;SDS011;74496;52.236;5.164;2023-12-07T07:17:43;44.92;;;11.75;;
84315;SDS011;74496;52.236;5.164;2023-12-07T07:20:11;51.57;;;10.07;;
84315;SDS011;74496;52.236;5.164;2023-12-07T07:22:38;46.40;;;11.73;;
84315;SDS011;74496;52.236;5.164;2023-12-07T07:25:06;85.75;;;11.50;;
84315;SDS011;74496;52.236;5.164;2023-12-07T07:27:33;54.08;;;11.27;;
84315;SDS011;74496;52.236;5.164;2023-12-07T07:30:00;24.02;;;11.15;;
84315;SDS011;74496;52.236;5.164;2023-12-07T07:32:29;17.23;;;10.50;;
84315;SDS011;74496;52.236;5.164;2023-12-07T07:34:56;93.47;;;11.48;;
84315;SDS011;74496;52.236;5.164;2023-12-07T07:37:24;85.47;;;12.32;;
84315;SDS011;74496;52.236;5.164;2023-12-07T07:39:50;35.83;;;11.07;;
84315;SDS011;74496;52.236;5.164;2023-12-07T07:42:17;48.53;;;11.85;;
84315;SDS011;74496;52.236;5.164;2023-12-07T07:44:44;54.50;;;11.17;;
84315;SDS011;74496;52.236;5.164;2023-12-07T07:47:10;41.33;;;11.68;;
84315;SDS011;74496;52.236;5.164;2023-12-07T07:49:37;135.85;;;11.85;;
84315;SDS011;74496;52.236;5.164;2023-12-07T07:52:04;20.70;;;10.73;;
84315;SDS011;74496;52.236;5.164;2023-12-07T07:54:32;62.75;;;10.70;;
84315;SDS011;74496;52.236;5.164;2023-12-07T07:56:59;28.03;;;10.67;;
84315;SDS011;74496;52.236;5.164;2023-12-07T07:59:25;17.08;;;9.82;;
84315;SDS011;74496;52.236;5.164;2023-12-07T08:01:52;21.23;;;10.45;;
84315;SDS011;74496;52.236;5.164;2023-12-07T08:04:19;118.55;;;12.15;;
84315;SDS011;74496;52.236;5.164;2023-12-07T08:06:45;46.75;;;10.85;;
84315;SDS011;74496;52.236;5.164;2023-12-07T08:09:12;32.47;;;10.20;;
84315;SDS011;74496;52.236;5.164;2023-12-07T08:11:40;50.25;;;11.05;;
84315;SDS011;74496;52.236;5.164;2023-12-07T08:14:07;29.38;;;11.68;;
84315;SDS011;74496;52.236;5.164;2023-12-07T08:16:34;26.70;;;12.07;;
84315;SDS011;74496;52.236;5.164;2023-12-07T08:19:01;41.55;;;11.18;;
84315;SDS011;74496;52.236;5.164;2023-12-07T08:21:27;55.80;;;13.07;;
84315;SDS011;74496;52.236;5.164;2023-12-07T08:23:55;29.35;;;12.55;;
84315;SDS011;74496;52.236;5.164;2023-12-07T08:26:21;34.92;;;13.20;;
84315;SDS011;74496;52.236;5.164;2023-12-07T08:28:49;80.82;;;13.52;;
84315;SDS011;74496;52.236;5.164;2023-12-07T08:31:19;16.17;;;11.45;;
84315;SDS011;74496;52.236;5.164;2023-12-07T08:33:48;25.00;;;11.60;;
84315;SDS011;74496;52.236;5.164;2023-12-07T08:36:14;47.72;;;11.30;;
84315;SDS011;74496;52.236;5.164;2023-12-07T08:38:41;67.70;;;11.65;;
84315;SDS011;74496;52.236;5.164;2023-12-07T08:41:08;14.85;;;9.30;;
84315;SDS011;74496;52.236;5.164;2023-12-07T08:43:35;72.93;;;11.05;;
84315;SDS011;74496;52.236;5.164;2023-12-07T08:46:03;31.77;;;11.40;;
84315;SDS011;74496;52.236;5.164;2023-12-07T08:48:32;54.65;;;11.20;;
84315;SDS011;74496;52.236;5.164;2023-12-07T08:50:59;32.63;;;11.23;;
84315;SDS011;74496;52.236;5.164;2023-12-07T08:53:27;50.15;;;10.93;;
84315;SDS011;74496;52.236;5.164;2023-12-07T08:55:53;16.33;;;10.52;;
84315;SDS011;74496;52.236;5.164;2023-12-07T08:58:20;19.37;;;10.17;;
84315;SDS011;74496;52.236;5.164;2023-12-07T09:00:47;17.92;;;9.63;;
84315;SDS011;74496;52.236;5.164;2023-12-07T09:03:15;16.20;;;9.70;;
84315;SDS011;74496;52.236;5.164;2023-12-07T09:05:42;26.63;;;10.35;;
84315;SDS011;74496;52.236;5.164;2023-12-07T09:08:08;15.82;;;9.43;;
84315;SDS011;74496;52.236;5.164;2023-12-07T09:10:35;21.30;;;10.50;;
84315;SDS011;74496;52.236;5.164;2023-12-07T09:13:02;37.67;;;11.07;;
84315;SDS011;74496;52.236;5.164;2023-12-07T09:15:29;25.00;;;10.13;;
84315;SDS011;74496;52.236;5.164;2023-12-07T09:17:55;22.17;;;10.35;;
84315;SDS011;74496;52.236;5.164;2023-12-07T09:20:23;22.17;;;9.65;;
84315;SDS011;74496;52.236;5.164;2023-12-07T09:22:50;23.87;;;9.90;;
84315;SDS011;74496;52.236;5.164;2023-12-07T09:25:18;23.02;;;10.20;;
84315;SDS011;74496;52.236;5.164;2023-12-07T09:27:46;37.35;;;10.75;;
84315;SDS011;74496;52.236;5.164;2023-12-07T09:30:13;49.58;;;10.32;;
84315;SDS011;74496;52.236;5.164;2023-12-07T09:32:41;21.05;;;8.98;;
84315;SDS011;74496;52.236;5.164;2023-12-07T09:35:09;30.47;;;8.13;;
84315;SDS011;74496;52.236;5.164;2023-12-07T09:37:41;15.00;;;9.23;;
84315;SDS011;74496;52.236;5.164;2023-12-07T09:40:08;17.38;;;9.98;;
84315;SDS011;74496;52.236;5.164;2023-12-07T09:42:40;25.02;;;10.93;;
84315;SDS011;74496;52.236;5.164;2023-12-07T09:45:08;17.95;;;9.75;;
84315;SDS011;74496;52.236;5.164;2023-12-07T09:47:35;35.80;;;10.13;;
84315;SDS011;74496;52.236;5.164;2023-12-07T09:50:04;13.60;;;10.25;;
84315;SDS011;74496;52.236;5.164;2023-12-07T09:52:32;17.08;;;10.25;;
84315;SDS011;74496;52.236;5.164;2023-12-07T09:55:00;15.70;;;9.82;;
84315;SDS011;74496;52.236;5.164;2023-12-07T09:57:29;12.15;;;8.57;;
84315;SDS011;74496;52.236;5.164;2023-12-07T09:59:56;10.87;;;8.47;;
84315;SDS011;74496;52.236;5.164;2023-12-07T10:02:23;11.65;;;9.15;;
84315;SDS011;74496;52.236;5.164;2023-12-07T10:05:02;12.20;;;8.60;;
84315;SDS011;74496;52.236;5.164;2023-12-07T10:07:31;20.90;;;9.15;;
84315;SDS011;74496;52.236;5.164;2023-12-07T10:10:01;20.65;;;9.65;;
84315;SDS011;74496;52.236;5.164;2023-12-07T10:12:28;16.63;;;7.47;;
84315;SDS011;74496;52.236;5.164;2023-12-07T10:14:55;13.23;;;7.90;;
84315;SDS011;74496;52.236;5.164;2023-12-07T10:17:21;29.83;;;8.05;;
84315;SDS011;74496;52.236;5.164;2023-12-07T10:19:55;12.88;;;6.35;;
84315;SDS011;74496;52.236;5.164;2023-12-07T10:22:34;23.48;;;7.82;;
84315;SDS011;74496;52.236;5.164;2023-12-07T10:25:02;22.53;;;8.00;;
84315;SDS011;74496;52.236;5.164;2023-12-07T10:27:29;70.78;;;7.32;;
84315;SDS011;74496;52.236;5.164;2023-12-07T10:29:58;18.10;;;8.20;;
84315;SDS011;74496;52.236;5.164;2023-12-07T10:32:25;26.65;;;6.65;;
84315;SDS011;74496;52.236;5.164;2023-12-07T10:34:52;32.72;;;6.78;;
84315;SDS011;74496;52.236;5.164;2023-12-07T10:37:21;12.93;;;7.17;;
84315;SDS011;74496;52.236;5.164;2023-12-07T10:39:48;14.07;;;7.90;;
84315;SDS011;74496;52.236;5.164;2023-12-07T10:42:16;18.05;;;7.70;;
84315;SDS011;74496;52.236;5.164;2023-12-07T10:44:50;9.10;;;7.35;;
84315;SDS011;74496;52.236;5.164;2023-12-07T10:47:21;9.27;;;7.05;;
84315;SDS011;74496;52.236;5.164;2023-12-07T10:49:50;26.40;;;6.73;;
84315;SDS011;74496;52.236;5.164;2023-12-07T10:52:22;15.05;;;6.80;;
84315;SDS011;74496;52.236;5.164;2023-12-07T10:54:53;18.75;;;6.40;;
84315;SDS011;74496;52.236;5.164;2023-12-07T10:57:27;12.68;;;5.82;;
84315;SDS011;74496;52.236;5.164;2023-12-07T10:59:55;16.63;;;6.57;;
84315;SDS011;74496;52.236;5.164;2023-12-07T11:02:23;9.50;;;5.57;;
84315;SDS011;74496;52.236;5.164;2023-12-07T11:04:52;8.43;;;5.72;;
84315;SDS011;74496;52.236;5.164;2023-12-07T11:07:22;9.65;;;6.65;;
84315;SDS011;74496;52.236;5.164;2023-12-07T11:09:52;7.45;;;6.32;;
84315;SDS011;74496;52.236;5.164;2023-12-07T11:12:31;13.68;;;6.55;;
84315;SDS011;74496;52.236;5.164;2023-12-07T11:15:03;8.03;;;6.30;;
84315;SDS011;74496;52.236;5.164;2023-12-07T11:17:38;9.02;;;6.57;;
84315;SDS011;74496;52.236;5.164;2023-12-07T11:20:18;8.25;;;6.10;;
84315;SDS011;74496;52.236;5.164;2023-12-07T11:22:45;12.20;;;6.65;;
84315;SDS011;74496;52.236;5.164;2023-12-07T11:25:14;10.73;;;6.47;;
84315;SDS011;74496;52.236;5.164;2023-12-07T11:27:45;11.47;;;7.13;;
84315;SDS011;74496;52.236;5.164;2023-12-07T11:30:14;14.75;;;6.68;;
84315;SDS011;74496;52.236;5.164;2023-12-07T11:32:42;9.93;;;6.63;;
84315;SDS011;74496;52.236;5.164;2023-12-07T11:35:14;11.00;;;6.65;;
84315;SDS011;74496;52.236;5.164;2023-12-07T11:40:35;15.63;;;6.60;;
84315;SDS011;74496;52.236;5.164;2023-12-07T11:43:02;8.18;;;6.40;;
84315;SDS011;74496;52.236;5.164;2023-12-07T11:45:40;22.63;;;6.88;;
84315;SDS011;74496;52.236;5.164;2023-12-07T11:48:09;9.30;;;6.70;;
84315;SDS011;74496;52.236;5.164;2023-12-07T11:50:36;13.10;;;7.50;;
84315;SDS011;74496;52.236;5.164;2023-12-07T11:53:21;9.60;;;7.33;;
84315;SDS011;74496;52.236;5.164;2023-12-07T11:55:48;11.48;;;7.30;;
84315;SDS011;74496;52.236;5.164;2023-12-07T11:58:16;26.98;;;8.10;;
84315;SDS011;74496;52.236;5.164;2023-12-07T12:00:43;11.52;;;8.15;;
84315;SDS011;74496;52.236;5.164;2023-12-07T12:03:11;12.65;;;8.38;;
84315;SDS011;74496;52.236;5.164;2023-12-07T12:05:39;14.47;;;8.50;;
84315;SDS011;74496;52.236;5.164;2023-12-07T12:08:05;14.98;;;8.55;;
84315;SDS011;74496;52.236;5.164;2023-12-07T12:10:32;17.58;;;9.05;;
84315;SDS011;74496;52.236;5.164;2023-12-07T12:13:01;14.70;;;9.48;;
84315;SDS011;74496;52.236;5.164;2023-12-07T12:15:29;15.48;;;9.18;;
84315;SDS011;74496;52.236;5.164;2023-12-07T12:17:56;12.13;;;8.47;;
84315;SDS011;74496;52.236;5.164;2023-12-07T12:20:24;13.65;;;9.02;;
84315;SDS011;74496;52.236;5.164;2023-12-07T12:22:51;15.00;;;9.00;;
84315;SDS011;74496;52.236;5.164;2023-12-07T12:25:19;19.27;;;9.80;;
84315;SDS011;74496;52.236;5.164;2023-12-07T12:27:48;21.05;;;8.77;;
84315;SDS011;74496;52.236;5.164;2023-12-07T12:30:17;19.00;;;8.97;;
84315;SDS011;74496;52.236;5.164;2023-12-07T12:32:45;14.90;;;9.07;;
84315;SDS011;74496;52.236;5.164;2023-12-07T12:35:12;20.90;;;8.98;;
84315;SDS011;74496;52.236;5.164;2023-12-07T12:37:40;16.20;;;9.15;;
84315;SDS011;74496;52.236;5.164;2023-12-07T12:40:08;15.48;;;8.95;;
84315;SDS011;74496;52.236;5.164;2023-12-07T12:42:36;12.67;;;8.37;;
84315;SDS011;74496;52.236;5.164;2023-12-07T12:45:04;20.70;;;9.45;;
84315;SDS011;74496;52.236;5.164;2023-12-07T12:47:33;35.58;;;9.65;;
84315;SDS011;74496;52.236;5.164;2023-12-07T12:50:01;30.85;;;10.38;;
84315;SDS011;74496;52.236;5.164;2023-12-07T12:52:29;17.67;;;9.63;;
84315;SDS011;74496;52.236;5.164;2023-12-07T12:54:57;18.80;;;10.00;;
84315;SDS011;74496;52.236;5.164;2023-12-07T12:57:23;16.98;;;9.60;;
84315;SDS011;74496;52.236;5.164;2023-12-07T12:59:50;15.57;;;9.77;;
84315;SDS011;74496;52.236;5.164;2023-12-07T13:02:18;24.02;;;9.57;;
84315;SDS011;74496;52.236;5.164;2023-12-07T13:04:45;20.10;;;10.20;;
84315;SDS011;74496;52.236;5.164;2023-12-07T13:07:15;23.30;;;10.83;;
84315;SDS011;74496;52.236;5.164;2023-12-07T13:09:41;21.10;;;10.05;;
84315;SDS011;74496;52.236;5.164;2023-12-07T13:12:09;28.00;;;9.70;;
84315;SDS011;74496;52.236;5.164;2023-12-07T13:14:36;36.75;;;10.23;;
84315;SDS011;74496;52.236;5.164;2023-12-07T13:17:05;19.98;;;10.00;;
84315;SDS011;74496;52.236;5.164;2023-12-07T13:19:32;18.90;;;10.73;;
84315;SDS011;74496;52.236;5.164;2023-12-07T13:21:59;17.17;;;10.35;;
84315;SDS011;74496;52.236;5.164;2023-12-07T13:24:27;18.20;;;10.95;;
84315;SDS011;74496;52.236;5.164;2023-12-07T13:26:54;15.93;;;10.45;;
84315;SDS011;74496;52.236;5.164;2023-12-07T13:29:21;22.85;;;11.38;;
84315;SDS011;74496;52.236;5.164;2023-12-07T13:31:49;18.13;;;10.90;;
84315;SDS011;74496;52.236;5.164;2023-12-07T13:34:16;18.63;;;11.70;;
84315;SDS011;74496;52.236;5.164;2023-12-07T13:36:43;18.95;;;11.77;;
84315;SDS011;74496;52.236;5.164;2023-12-07T13:39:09;20.05;;;10.80;;
84315;SDS011;74496;52.236;5.164;2023-12-07T13:41:39;21.90;;;11.55;;
84315;SDS011;74496;52.236;5.164;2023-12-07T13:44:06;18.30;;;10.60;;
84315;SDS011;74496;52.236;5.164;2023-12-07T13:46:32;22.42;;;12.48;;
84315;SDS011;74496;52.236;5.164;2023-12-07T13:48:59;23.17;;;11.85;;
84315;SDS011;74496;52.236;5.164;2023-12-07T13:51:26;20.30;;;12.40;;
84315;SDS011;74496;52.236;5.164;2023-12-07T13:53:52;22.13;;;13.35;;
84315;SDS011;74496;52.236;5.164;2023-12-07T13:56:21;26.47;;;13.03;;
84315;SDS011;74496;52.236;5.164;2023-12-07T13:58:50;22.15;;;12.82;;
84315;SDS011;74496;52.236;5.164;2023-12-07T14:01:16;22.85;;;11.73;;
84315;SDS011;74496;52.236;5.164;2023-12-07T14:03:43;22.65;;;12.82;;
84315;SDS011;74496;52.236;5.164;2023-12-07T14:06:10;20.98;;;11.30;;
84315;SDS011;74496;52.236;5.164;2023-12-07T14:08:39;24.00;;;12.60;;
84315;SDS011;74496;52.236;5.164;2023-12-07T14:11:05;24.85;;;13.30;;
84315;SDS011;74496;52.236;5.164;2023-12-07T14:13:31;21.83;;;13.00;;
84315;SDS011;74496;52.236;5.164;2023-12-07T14:15:59;23.05;;;12.88;;
84315;SDS011;74496;52.236;5.164;2023-12-07T14:18:26;21.73;;;12.53;;
84315;SDS011;74496;52.236;5.164;2023-12-07T14:20:53;24.77;;;14.10;;
84315;SDS011;74496;52.236;5.164;2023-12-07T14:23:21;22.20;;;13.73;;
84315;SDS011;74496;52.236;5.164;2023-12-07T14:25:48;22.13;;;13.07;;
84315;SDS011;74496;52.236;5.164;2023-12-07T14:28:16;20.15;;;13.73;;
84315;SDS011;74496;52.236;5.164;2023-12-07T14:30:44;21.53;;;12.90;;
84315;SDS011;74496;52.236;5.164;2023-12-07T14:33:12;24.60;;;13.85;;
84315;SDS011;74496;52.236;5.164;2023-12-07T14:35:38;23.83;;;14.23;;
84315;SDS011;74496;52.236;5.164;2023-12-07T14:38:04;23.48;;;13.93;;